sensor_id;sensor_type;location;lat;lon;timestamp;P1;durP1;ratioP1;P2;durP2;ratioP2
11588;SDS011;5850;51.360;12.362;2024-03-08T00:00:37;30.60;;;22.87;;
11588;SDS011;5850;51.360;12.362;2024-03-08T00:03:06;30.50;;;21.97;;
11588;SDS011;5850;51.360;12.362;2024-03-08T00:05:36;33.30;;;24.47;;
11588;SDS011;5850;51.360;12.362;2024-03-08T00:08:05;31.30;;;23.20;;
11588;SDS011;5850;51.360;12.362;2024-03-08T00:10:36;36.53;;;24.10;;
11588;SDS011;5850;51.360;12.362;2024-03-08T00:13:05;34.17;;;23.67;;
11588;SDS011;5850;51.360;12.362;2024-03-08T00:15:34;38.13;;;22.77;;
11588;SDS011;5850;51.360;12.362;2024-03-08T00:18:02;33.77;;;23.30;;
11588;SDS011;5850;51.360;12.362;2024-03-08T00:20:30;33.57;;;24.57;;
11588;SDS011;5850;51.360;12.362;2024-03-08T00:22:59;31.23;;;23.27;;
11588;SDS011;5850;51.360;12.362;2024-03-08T00:25:27;30.37;;;23.10;;
11588;SDS011;5850;51.360;12.362;2024-03-08T00:27:56;32.50;;;22.73;;
11588;SDS011;5850;51.360;12.362;2024-03-08T00:30:26;33.27;;;24.00;;
11588;SDS011;5850;51.360;12.362;2024-03-08T00:32:54;35.93;;;23.57;;
11588;SDS011;5850;51.360;12.362;2024-03-08T00:35:22;33.27;;;23.77;;
11588;SDS011;5850;51.360;12.362;2024-03-08T00:37:51;32.33;;;24.07;;
11588;SDS011;5850;51.360;12.362;2024-03-08T00:40:22;35.13;;;23.87;;
11588;SDS011;5850;51.360;12.362;2024-03-08T00:42:51;30.23;;;22.93;;
11588;SDS011;5850;51.360;12.362;2024-03-08T00:45:20;31.70;;;23.53;;
11588;SDS011;5850;51.360;12.362;2024-03-08T00:47:49;30.07;;;22.07;;
11588;SDS011;5850;51.360;12.362;2024-03-08T00:50:18;30.77;;;22.57;;
11588;SDS011;5850;51.360;12.362;2024-03-08T00:52:46;34.60;;;24.53;;
11588;SDS011;5850;51.360;12.362;2024-03-08T00:55:14;33.70;;;23.17;;
11588;SDS011;5850;51.360;12.362;2024-03-08T00:57:43;32.63;;;22.97;;
11588;SDS011;5850;51.360;12.362;2024-03-08T01:00:11;31.43;;;22.30;;
11588;SDS011;5850;51.360;12.362;2024-03-08T01:02:40;32.07;;;23.60;;
11588;SDS011;5850;51.360;12.362;2024-03-08T01:05:08;32.90;;;23.53;;
11588;SDS011;5850;51.360;12.362;2024-03-08T01:07:37;33.37;;;22.30;;
11588;SDS011;5850;51.360;12.362;2024-03-08T01:10:05;33.83;;;24.07;;
11588;SDS011;5850;51.360;12.362;2024-03-08T01:12:36;32.27;;;22.43;;
11588;SDS011;5850;51.360;12.362;2024-03-08T01:15:06;32.57;;;23.23;;
11588;SDS011;5850;51.360;12.362;2024-03-08T01:17:35;33.90;;;23.50;;
11588;SDS011;5850;51.360;12.362;2024-03-08T01:20:04;32.20;;;23.87;;
11588;SDS011;5850;51.360;12.362;2024-03-08T01:22:33;34.20;;;24.87;;
11588;SDS011;5850;51.360;12.362;2024-03-08T01:25:01;32.67;;;24.77;;
11588;SDS011;5850;51.360;12.362;2024-03-08T01:27:31;36.37;;;24.57;;
11588;SDS011;5850;51.360;12.362;2024-03-08T01:30:01;33.37;;;23.27;;
11588;SDS011;5850;51.360;12.362;2024-03-08T01:32:30;38.13;;;25.83;;
11588;SDS011;5850;51.360;12.362;2024-03-08T01:34:58;34.37;;;23.47;;
11588;SDS011;5850;51.360;12.362;2024-03-08T01:37:27;36.17;;;24.87;;
11588;SDS011;5850;51.360;12.362;2024-03-08T01:39:55;34.13;;;23.93;;
11588;SDS011;5850;51.360;12.362;2024-03-08T01:42:24;39.50;;;23.97;;
11588;SDS011;5850;51.360;12.362;2024-03-08T01:44:52;32.37;;;23.30;;
11588;SDS011;5850;51.360;12.362;2024-03-08T01:47:21;34.80;;;23.60;;
11588;SDS011;5850;51.360;12.362;2024-03-08T01:49:49;38.97;;;25.67;;
11588;SDS011;5850;51.360;12.362;2024-03-08T01:52:18;33.57;;;24.83;;
11588;SDS011;5850;51.360;12.362;2024-03-08T01:54:47;35.77;;;24.80;;
11588;SDS011;5850;51.360;12.362;2024-03-08T01:57:15;36.67;;;23.83;;
11588;SDS011;5850;51.360;12.362;2024-03-08T01:59:44;31.13;;;22.27;;
11588;SDS011;5850;51.360;12.362;2024-03-08T02:02:12;37.17;;;24.20;;
11588;SDS011;5850;51.360;12.362;2024-03-08T02:04:44;33.57;;;23.20;;
11588;SDS011;5850;51.360;12.362;2024-03-08T02:07:13;33.43;;;24.20;;
11588;SDS011;5850;51.360;12.362;2024-03-08T02:09:41;33.57;;;22.77;;
11588;SDS011;5850;51.360;12.362;2024-03-08T02:12:10;37.43;;;23.27;;
11588;SDS011;5850;51.360;12.362;2024-03-08T02:14:38;36.67;;;23.57;;
11588;SDS011;5850;51.360;12.362;2024-03-08T02:17:07;35.40;;;24.70;;
11588;SDS011;5850;51.360;12.362;2024-03-08T02:19:35;36.00;;;23.53;;
11588;SDS011;5850;51.360;12.362;2024-03-08T02:22:03;33.97;;;23.47;;
11588;SDS011;5850;51.360;12.362;2024-03-08T02:24:33;34.30;;;24.83;;
11588;SDS011;5850;51.360;12.362;2024-03-08T02:27:01;37.20;;;24.03;;
11588;SDS011;5850;51.360;12.362;2024-03-08T02:29:29;36.07;;;24.00;;
11588;SDS011;5850;51.360;12.362;2024-03-08T02:31:58;33.20;;;23.87;;
11588;SDS011;5850;51.360;12.362;2024-03-08T02:34:27;37.77;;;23.87;;
11588;SDS011;5850;51.360;12.362;2024-03-08T02:36:55;35.27;;;23.33;;
11588;SDS011;5850;51.360;12.362;2024-03-08T02:39:24;38.87;;;24.43;;
11588;SDS011;5850;51.360;12.362;2024-03-08T02:41:54;34.83;;;25.23;;
11588;SDS011;5850;51.360;12.362;2024-03-08T02:44:22;34.47;;;24.17;;
11588;SDS011;5850;51.360;12.362;2024-03-08T02:46:50;33.17;;;23.27;;
11588;SDS011;5850;51.360;12.362;2024-03-08T02:49:21;35.17;;;23.67;;
11588;SDS011;5850;51.360;12.362;2024-03-08T02:51:49;38.30;;;25.37;;
11588;SDS011;5850;51.360;12.362;2024-03-08T02:54:18;34.30;;;23.23;;
11588;SDS011;5850;51.360;12.362;2024-03-08T02:56:46;31.87;;;23.47;;
11588;SDS011;5850;51.360;12.362;2024-03-08T02:59:17;37.07;;;23.67;;
11588;SDS011;5850;51.360;12.362;2024-03-08T03:01:45;36.57;;;23.80;;
11588;SDS011;5850;51.360;12.362;2024-03-08T03:04:14;33.87;;;24.03;;
11588;SDS011;5850;51.360;12.362;2024-03-08T03:06:42;36.60;;;25.27;;
11588;SDS011;5850;51.360;12.362;2024-03-08T03:09:24;32.93;;;23.00;;
11588;SDS011;5850;51.360;12.362;2024-03-08T03:11:54;33.60;;;23.20;;
11588;SDS011;5850;51.360;12.362;2024-03-08T03:14:22;37.13;;;24.20;;
11588;SDS011;5850;51.360;12.362;2024-03-08T03:16:53;31.90;;;21.73;;
11588;SDS011;5850;51.360;12.362;2024-03-08T03:19:21;33.63;;;23.73;;
11588;SDS011;5850;51.360;12.362;2024-03-08T03:21:50;33.47;;;24.27;;
11588;SDS011;5850;51.360;12.362;2024-03-08T03:24:18;34.80;;;22.00;;
11588;SDS011;5850;51.360;12.362;2024-03-08T03:26:47;33.03;;;23.07;;
11588;SDS011;5850;51.360;12.362;2024-03-08T03:29:16;32.90;;;23.13;;
11588;SDS011;5850;51.360;12.362;2024-03-08T03:31:44;34.20;;;23.67;;
11588;SDS011;5850;51.360;12.362;2024-03-08T03:34:12;32.00;;;21.83;;
11588;SDS011;5850;51.360;12.362;2024-03-08T03:36:41;37.27;;;24.50;;
11588;SDS011;5850;51.360;12.362;2024-03-08T03:39:13;33.63;;;23.10;;
11588;SDS011;5850;51.360;12.362;2024-03-08T03:41:43;33.10;;;22.63;;
11588;SDS011;5850;51.360;12.362;2024-03-08T03:44:12;32.13;;;23.17;;
11588;SDS011;5850;51.360;12.362;2024-03-08T03:46:44;35.00;;;22.47;;
11588;SDS011;5850;51.360;12.362;2024-03-08T03:49:12;35.10;;;22.57;;
11588;SDS011;5850;51.360;12.362;2024-03-08T03:51:40;29.47;;;21.43;;
11588;SDS011;5850;51.360;12.362;2024-03-08T03:54:08;32.97;;;22.90;;
11588;SDS011;5850;51.360;12.362;2024-03-08T03:56:36;33.60;;;23.77;;
11588;SDS011;5850;51.360;12.362;2024-03-08T03:59:06;33.87;;;23.90;;
11588;SDS011;5850;51.360;12.362;2024-03-08T04:01:34;33.73;;;24.07;;
11588;SDS011;5850;51.360;12.362;2024-03-08T04:04:05;31.13;;;22.57;;
11588;SDS011;5850;51.360;12.362;2024-03-08T04:06:33;32.83;;;21.87;;
11588;SDS011;5850;51.360;12.362;2024-03-08T04:09:02;32.30;;;22.20;;
11588;SDS011;5850;51.360;12.362;2024-03-08T04:11:31;32.73;;;21.93;;
11588;SDS011;5850;51.360;12.362;2024-03-08T04:13:59;36.07;;;23.47;;
11588;SDS011;5850;51.360;12.362;2024-03-08T04:16:27;33.27;;;23.03;;
11588;SDS011;5850;51.360;12.362;2024-03-08T04:18:56;35.13;;;23.50;;
11588;SDS011;5850;51.360;12.362;2024-03-08T04:21:24;34.37;;;23.77;;
11588;SDS011;5850;51.360;12.362;2024-03-08T04:23:53;30.83;;;22.50;;
11588;SDS011;5850;51.360;12.362;2024-03-08T04:26:22;34.07;;;22.23;;
11588;SDS011;5850;51.360;12.362;2024-03-08T04:28:52;32.87;;;22.87;;
11588;SDS011;5850;51.360;12.362;2024-03-08T04:31:21;34.97;;;23.60;;
11588;SDS011;5850;51.360;12.362;2024-03-08T04:33:49;33.70;;;23.37;;
11588;SDS011;5850;51.360;12.362;2024-03-08T04:36:17;34.23;;;23.63;;
11588;SDS011;5850;51.360;12.362;2024-03-08T04:38:46;34.27;;;23.10;;
11588;SDS011;5850;51.360;12.362;2024-03-08T04:41:14;36.80;;;25.20;;
11588;SDS011;5850;51.360;12.362;2024-03-08T04:43:42;35.23;;;24.47;;
11588;SDS011;5850;51.360;12.362;2024-03-08T04:46:10;33.87;;;24.37;;
11588;SDS011;5850;51.360;12.362;2024-03-08T04:48:39;33.33;;;22.67;;
11588;SDS011;5850;51.360;12.362;2024-03-08T04:51:09;33.90;;;22.97;;
11588;SDS011;5850;51.360;12.362;2024-03-08T04:53:37;36.23;;;23.10;;
11588;SDS011;5850;51.360;12.362;2024-03-08T04:56:05;34.40;;;23.40;;
11588;SDS011;5850;51.360;12.362;2024-03-08T04:58:37;34.40;;;23.83;;
11588;SDS011;5850;51.360;12.362;2024-03-08T05:01:05;31.27;;;24.17;;
11588;SDS011;5850;51.360;12.362;2024-03-08T05:03:36;35.07;;;24.13;;
11588;SDS011;5850;51.360;12.362;2024-03-08T05:06:05;39.70;;;24.07;;
11588;SDS011;5850;51.360;12.362;2024-03-08T05:08:34;37.83;;;24.23;;
11588;SDS011;5850;51.360;12.362;2024-03-08T05:11:02;36.40;;;24.80;;
11588;SDS011;5850;51.360;12.362;2024-03-08T05:13:33;34.17;;;24.17;;
11588;SDS011;5850;51.360;12.362;2024-03-08T05:16:01;39.40;;;25.50;;
11588;SDS011;5850;51.360;12.362;2024-03-08T05:18:29;37.53;;;25.70;;
11588;SDS011;5850;51.360;12.362;2024-03-08T05:20:58;41.13;;;24.77;;
11588;SDS011;5850;51.360;12.362;2024-03-08T05:23:30;37.00;;;25.67;;
11588;SDS011;5850;51.360;12.362;2024-03-08T05:25:58;34.90;;;24.60;;
11588;SDS011;5850;51.360;12.362;2024-03-08T05:28:27;36.77;;;24.00;;
11588;SDS011;5850;51.360;12.362;2024-03-08T05:30:55;39.30;;;25.40;;
11588;SDS011;5850;51.360;12.362;2024-03-08T05:33:23;37.90;;;25.40;;
11588;SDS011;5850;51.360;12.362;2024-03-08T05:35:51;40.37;;;25.90;;
11588;SDS011;5850;51.360;12.362;2024-03-08T05:38:20;37.03;;;24.90;;
11588;SDS011;5850;51.360;12.362;2024-03-08T05:40:48;35.30;;;23.60;;
11588;SDS011;5850;51.360;12.362;2024-03-08T05:43:17;38.37;;;25.37;;
11588;SDS011;5850;51.360;12.362;2024-03-08T05:45:46;37.63;;;25.73;;
11588;SDS011;5850;51.360;12.362;2024-03-08T05:48:14;38.23;;;25.53;;
11588;SDS011;5850;51.360;12.362;2024-03-08T05:50:44;38.23;;;26.40;;
11588;SDS011;5850;51.360;12.362;2024-03-08T05:53:12;42.03;;;27.20;;
11588;SDS011;5850;51.360;12.362;2024-03-08T05:55:41;42.63;;;25.57;;
11588;SDS011;5850;51.360;12.362;2024-03-08T05:58:09;41.10;;;27.00;;
11588;SDS011;5850;51.360;12.362;2024-03-08T06:00:37;37.93;;;26.63;;
11588;SDS011;5850;51.360;12.362;2024-03-08T06:03:06;36.57;;;25.87;;
11588;SDS011;5850;51.360;12.362;2024-03-08T06:05:34;40.10;;;26.77;;
11588;SDS011;5850;51.360;12.362;2024-03-08T06:08:04;41.10;;;26.43;;
11588;SDS011;5850;51.360;12.362;2024-03-08T06:10:33;40.27;;;27.00;;
11588;SDS011;5850;51.360;12.362;2024-03-08T06:13:01;40.03;;;27.40;;
11588;SDS011;5850;51.360;12.362;2024-03-08T06:15:30;39.30;;;26.20;;
11588;SDS011;5850;51.360;12.362;2024-03-08T06:17:58;37.50;;;25.87;;
11588;SDS011;5850;51.360;12.362;2024-03-08T06:20:27;40.50;;;27.33;;
11588;SDS011;5850;51.360;12.362;2024-03-08T06:22:55;37.03;;;26.67;;
11588;SDS011;5850;51.360;12.362;2024-03-08T06:25:24;38.33;;;24.40;;
11588;SDS011;5850;51.360;12.362;2024-03-08T06:27:52;43.43;;;26.83;;
11588;SDS011;5850;51.360;12.362;2024-03-08T06:30:20;36.17;;;24.97;;
11588;SDS011;5850;51.360;12.362;2024-03-08T06:32:49;40.30;;;27.83;;
11588;SDS011;5850;51.360;12.362;2024-03-08T06:35:17;40.07;;;25.30;;
11588;SDS011;5850;51.360;12.362;2024-03-08T06:37:46;39.00;;;26.13;;
11588;SDS011;5850;51.360;12.362;2024-03-08T06:40:14;45.70;;;27.33;;
11588;SDS011;5850;51.360;12.362;2024-03-08T06:42:43;41.50;;;27.27;;
11588;SDS011;5850;51.360;12.362;2024-03-08T06:45:11;45.07;;;27.97;;
11588;SDS011;5850;51.360;12.362;2024-03-08T06:47:45;46.03;;;26.70;;
11588;SDS011;5850;51.360;12.362;2024-03-08T06:50:13;42.30;;;26.30;;
11588;SDS011;5850;51.360;12.362;2024-03-08T06:52:42;38.27;;;25.73;;
11588;SDS011;5850;51.360;12.362;2024-03-08T06:55:12;38.40;;;26.47;;
11588;SDS011;5850;51.360;12.362;2024-03-08T06:57:41;41.37;;;27.33;;
11588;SDS011;5850;51.360;12.362;2024-03-08T07:00:09;41.33;;;26.77;;
11588;SDS011;5850;51.360;12.362;2024-03-08T07:02:44;44.87;;;27.90;;
11588;SDS011;5850;51.360;12.362;2024-03-08T07:05:15;42.53;;;27.40;;
11588;SDS011;5850;51.360;12.362;2024-03-08T07:07:43;42.33;;;26.20;;
11588;SDS011;5850;51.360;12.362;2024-03-08T07:10:14;39.60;;;26.73;;
11588;SDS011;5850;51.360;12.362;2024-03-08T07:12:43;41.37;;;26.27;;
11588;SDS011;5850;51.360;12.362;2024-03-08T07:15:11;41.73;;;27.20;;
11588;SDS011;5850;51.360;12.362;2024-03-08T07:17:41;40.87;;;25.23;;
11588;SDS011;5850;51.360;12.362;2024-03-08T07:20:11;43.83;;;29.30;;
11588;SDS011;5850;51.360;12.362;2024-03-08T07:22:39;43.83;;;28.30;;
11588;SDS011;5850;51.360;12.362;2024-03-08T07:25:12;41.30;;;27.60;;
11588;SDS011;5850;51.360;12.362;2024-03-08T07:27:51;42.43;;;26.77;;
11588;SDS011;5850;51.360;12.362;2024-03-08T07:30:24;38.10;;;26.00;;
11588;SDS011;5850;51.360;12.362;2024-03-08T07:33:11;38.17;;;25.83;;
11588;SDS011;5850;51.360;12.362;2024-03-08T07:35:40;38.80;;;26.67;;
11588;SDS011;5850;51.360;12.362;2024-03-08T07:38:10;38.20;;;27.23;;
11588;SDS011;5850;51.360;12.362;2024-03-08T07:40:39;40.30;;;27.10;;
11588;SDS011;5850;51.360;12.362;2024-03-08T07:43:11;40.63;;;25.93;;
11588;SDS011;5850;51.360;12.362;2024-03-08T07:45:39;41.50;;;26.60;;
11588;SDS011;5850;51.360;12.362;2024-03-08T07:48:08;41.47;;;27.00;;
11588;SDS011;5850;51.360;12.362;2024-03-08T07:50:37;36.27;;;25.90;;
11588;SDS011;5850;51.360;12.362;2024-03-08T07:53:06;43.80;;;27.87;;
11588;SDS011;5850;51.360;12.362;2024-03-08T07:55:35;43.93;;;26.97;;
11588;SDS011;5850;51.360;12.362;2024-03-08T07:58:03;42.60;;;27.40;;
11588;SDS011;5850;51.360;12.362;2024-03-08T08:00:32;36.83;;;24.80;;
11588;SDS011;5850;51.360;12.362;2024-03-08T08:03:03;37.17;;;26.37;;
11588;SDS011;5850;51.360;12.362;2024-03-08T08:05:31;36.47;;;26.07;;
11588;SDS011;5850;51.360;12.362;2024-03-08T08:08:02;38.70;;;26.63;;
11588;SDS011;5850;51.360;12.362;2024-03-08T08:10:32;41.90;;;27.40;;
11588;SDS011;5850;51.360;12.362;2024-03-08T08:13:01;45.03;;;27.63;;
11588;SDS011;5850;51.360;12.362;2024-03-08T08:15:31;38.13;;;25.17;;
11588;SDS011;5850;51.360;12.362;2024-03-08T08:18:00;40.87;;;27.37;;
11588;SDS011;5850;51.360;12.362;2024-03-08T08:20:29;37.07;;;25.10;;
11588;SDS011;5850;51.360;12.362;2024-03-08T08:22:57;42.60;;;26.57;;
11588;SDS011;5850;51.360;12.362;2024-03-08T08:25:26;39.47;;;25.03;;
11588;SDS011;5850;51.360;12.362;2024-03-08T08:27:54;40.83;;;25.70;;
11588;SDS011;5850;51.360;12.362;2024-03-08T08:30:22;37.53;;;25.53;;
11588;SDS011;5850;51.360;12.362;2024-03-08T08:32:51;40.87;;;26.67;;
11588;SDS011;5850;51.360;12.362;2024-03-08T08:35:19;46.87;;;26.60;;
11588;SDS011;5850;51.360;12.362;2024-03-08T08:37:48;38.17;;;25.93;;
11588;SDS011;5850;51.360;12.362;2024-03-08T08:40:16;43.47;;;25.97;;
11588;SDS011;5850;51.360;12.362;2024-03-08T08:42:45;38.53;;;25.93;;
11588;SDS011;5850;51.360;12.362;2024-03-08T08:45:15;37.10;;;25.47;;
11588;SDS011;5850;51.360;12.362;2024-03-08T08:47:50;40.23;;;26.50;;
11588;SDS011;5850;51.360;12.362;2024-03-08T08:50:21;38.03;;;25.27;;
11588;SDS011;5850;51.360;12.362;2024-03-08T08:52:50;46.23;;;26.97;;
11588;SDS011;5850;51.360;12.362;2024-03-08T08:55:20;42.73;;;26.13;;
11588;SDS011;5850;51.360;12.362;2024-03-08T08:57:52;37.13;;;24.97;;
11588;SDS011;5850;51.360;12.362;2024-03-08T09:00:20;38.27;;;24.93;;
11588;SDS011;5850;51.360;12.362;2024-03-08T09:02:53;42.80;;;26.30;;
11588;SDS011;5850;51.360;12.362;2024-03-08T09:05:24;39.03;;;25.03;;
11588;SDS011;5850;51.360;12.362;2024-03-08T09:07:52;38.37;;;25.40;;
11588;SDS011;5850;51.360;12.362;2024-03-08T09:10:21;38.73;;;26.10;;
11588;SDS011;5850;51.360;12.362;2024-03-08T09:12:54;41.07;;;26.90;;
11588;SDS011;5850;51.360;12.362;2024-03-08T09:15:23;38.43;;;25.77;;
11588;SDS011;5850;51.360;12.362;2024-03-08T09:17:54;35.73;;;24.93;;
11588;SDS011;5850;51.360;12.362;2024-03-08T09:20:22;41.37;;;26.37;;
11588;SDS011;5850;51.360;12.362;2024-03-08T09:22:51;37.80;;;24.97;;
11588;SDS011;5850;51.360;12.362;2024-03-08T09:25:19;34.97;;;24.73;;
11588;SDS011;5850;51.360;12.362;2024-03-08T09:27:48;36.70;;;24.43;;
11588;SDS011;5850;51.360;12.362;2024-03-08T09:30:16;38.30;;;23.53;;
11588;SDS011;5850;51.360;12.362;2024-03-08T09:32:46;37.53;;;24.07;;
11588;SDS011;5850;51.360;12.362;2024-03-08T09:35:14;33.47;;;24.50;;
11588;SDS011;5850;51.360;12.362;2024-03-08T09:37:42;42.07;;;24.50;;
11588;SDS011;5850;51.360;12.362;2024-03-08T09:40:13;37.77;;;24.97;;
11588;SDS011;5850;51.360;12.362;2024-03-08T09:42:42;37.13;;;24.90;;
11588;SDS011;5850;51.360;12.362;2024-03-08T09:45:11;40.53;;;24.87;;
11588;SDS011;5850;51.360;12.362;2024-03-08T09:47:44;39.07;;;25.70;;
11588;SDS011;5850;51.360;12.362;2024-03-08T09:50:12;40.40;;;26.30;;
11588;SDS011;5850;51.360;12.362;2024-03-08T09:52:41;35.67;;;24.67;;
11588;SDS011;5850;51.360;12.362;2024-03-08T09:55:11;35.63;;;24.40;;
11588;SDS011;5850;51.360;12.362;2024-03-08T09:57:39;41.90;;;25.90;;
11588;SDS011;5850;51.360;12.362;2024-03-08T10:00:08;55.70;;;32.27;;
11588;SDS011;5850;51.360;12.362;2024-03-08T10:02:50;34.60;;;23.27;;
11588;SDS011;5850;51.360;12.362;2024-03-08T10:05:21;41.03;;;26.83;;
11588;SDS011;5850;51.360;12.362;2024-03-08T10:07:49;37.90;;;25.53;;
11588;SDS011;5850;51.360;12.362;2024-03-08T10:10:19;38.77;;;27.00;;
11588;SDS011;5850;51.360;12.362;2024-03-08T10:12:48;37.80;;;24.13;;
11588;SDS011;5850;51.360;12.362;2024-03-08T10:15:16;35.33;;;24.10;;
11588;SDS011;5850;51.360;12.362;2024-03-08T10:17:46;33.27;;;22.53;;
11588;SDS011;5850;51.360;12.362;2024-03-08T10:22:44;37.33;;;24.80;;
11588;SDS011;5850;51.360;12.362;2024-03-08T10:25:32;36.23;;;24.17;;
11588;SDS011;5850;51.360;12.362;2024-03-08T10:28:02;31.70;;;21.93;;
11588;SDS011;5850;51.360;12.362;2024-03-08T10:30:31;30.07;;;22.03;;
11588;SDS011;5850;51.360;12.362;2024-03-08T10:33:10;34.57;;;23.20;;
11588;SDS011;5850;51.360;12.362;2024-03-08T10:35:39;33.67;;;22.70;;
11588;SDS011;5850;51.360;12.362;2024-03-08T10:38:08;34.33;;;23.90;;
11588;SDS011;5850;51.360;12.362;2024-03-08T10:40:42;35.37;;;22.90;;
11588;SDS011;5850;51.360;12.362;2024-03-08T10:43:21;37.47;;;23.37;;
11588;SDS011;5850;51.360;12.362;2024-03-08T10:49:50;37.67;;;22.50;;
11588;SDS011;5850;51.360;12.362;2024-03-08T10:53:11;32.67;;;21.83;;
11588;SDS011;5850;51.360;12.362;2024-03-08T10:55:41;32.27;;;22.27;;
11588;SDS011;5850;51.360;12.362;2024-03-08T10:58:11;29.87;;;21.90;;
11588;SDS011;5850;51.360;12.362;2024-03-08T11:00:39;42.03;;;23.63;;
11588;SDS011;5850;51.360;12.362;2024-03-08T11:03:07;34.27;;;22.67;;
11588;SDS011;5850;51.360;12.362;2024-03-08T11:06:07;31.60;;;21.63;;
11588;SDS011;5850;51.360;12.362;2024-03-08T11:08:36;36.77;;;22.23;;
11588;SDS011;5850;51.360;12.362;2024-03-08T11:11:05;32.73;;;20.20;;
11588;SDS011;5850;51.360;12.362;2024-03-08T11:13:34;31.73;;;19.67;;
11588;SDS011;5850;51.360;12.362;2024-03-08T11:16:10;28.10;;;20.07;;
11588;SDS011;5850;51.360;12.362;2024-03-08T11:19:05;28.37;;;20.07;;
11588;SDS011;5850;51.360;12.362;2024-03-08T11:21:57;26.83;;;20.47;;
11588;SDS011;5850;51.360;12.362;2024-03-08T11:24:36;34.77;;;22.03;;
11588;SDS011;5850;51.360;12.362;2024-03-08T11:27:07;29.97;;;20.43;;
11588;SDS011;5850;51.360;12.362;2024-03-08T11:29:36;31.17;;;21.47;;
11588;SDS011;5850;51.360;12.362;2024-03-08T11:32:15;28.10;;;20.40;;
11588;SDS011;5850;51.360;12.362;2024-03-08T11:34:48;33.43;;;21.73;;
11588;SDS011;5850;51.360;12.362;2024-03-08T11:37:26;33.70;;;21.80;;
11588;SDS011;5850;51.360;12.362;2024-03-08T11:42:45;27.63;;;19.17;;
11588;SDS011;5850;51.360;12.362;2024-03-08T11:45:15;28.63;;;19.20;;
11588;SDS011;5850;51.360;12.362;2024-03-08T11:47:46;29.77;;;21.50;;
11588;SDS011;5850;51.360;12.362;2024-03-08T11:50:16;28.10;;;20.77;;
11588;SDS011;5850;51.360;12.362;2024-03-08T11:52:47;28.53;;;20.57;;
11588;SDS011;5850;51.360;12.362;2024-03-08T11:55:18;28.57;;;20.13;;
11588;SDS011;5850;51.360;12.362;2024-03-08T11:57:48;28.07;;;18.93;;
11588;SDS011;5850;51.360;12.362;2024-03-08T12:00:19;28.87;;;19.07;;
11588;SDS011;5850;51.360;12.362;2024-03-08T12:03:02;31.07;;;21.07;;
11588;SDS011;5850;51.360;12.362;2024-03-08T12:05:36;29.17;;;21.53;;
11588;SDS011;5850;51.360;12.362;2024-03-08T12:08:04;27.60;;;19.40;;
11588;SDS011;5850;51.360;12.362;2024-03-08T12:10:34;28.87;;;19.17;;
11588;SDS011;5850;51.360;12.362;2024-03-08T12:13:06;23.80;;;17.67;;
11588;SDS011;5850;51.360;12.362;2024-03-08T12:15:42;26.83;;;19.13;;
11588;SDS011;5850;51.360;12.362;2024-03-08T12:18:10;28.30;;;19.20;;
11588;SDS011;5850;51.360;12.362;2024-03-08T12:20:39;30.13;;;21.47;;
11588;SDS011;5850;51.360;12.362;2024-03-08T12:23:13;32.03;;;21.47;;
11588;SDS011;5850;51.360;12.362;2024-03-08T12:25:43;31.97;;;21.30;;
11588;SDS011;5850;51.360;12.362;2024-03-08T12:28:12;30.37;;;21.73;;
11588;SDS011;5850;51.360;12.362;2024-03-08T12:30:48;36.93;;;22.27;;
11588;SDS011;5850;51.360;12.362;2024-03-08T12:33:20;30.70;;;22.43;;
11588;SDS011;5850;51.360;12.362;2024-03-08T12:35:52;34.57;;;22.87;;
11588;SDS011;5850;51.360;12.362;2024-03-08T12:38:22;31.47;;;22.37;;
11588;SDS011;5850;51.360;12.362;2024-03-08T12:40:57;34.87;;;22.77;;
11588;SDS011;5850;51.360;12.362;2024-03-08T12:43:26;30.67;;;21.37;;
11588;SDS011;5850;51.360;12.362;2024-03-08T12:45:57;31.40;;;21.53;;
11588;SDS011;5850;51.360;12.362;2024-03-08T12:48:26;30.43;;;22.73;;
11588;SDS011;5850;51.360;12.362;2024-03-08T12:50:57;38.13;;;22.87;;
11588;SDS011;5850;51.360;12.362;2024-03-08T12:53:27;36.93;;;22.03;;
11588;SDS011;5850;51.360;12.362;2024-03-08T12:55:55;35.20;;;22.00;;
11588;SDS011;5850;51.360;12.362;2024-03-08T12:58:24;28.70;;;21.13;;
11588;SDS011;5850;51.360;12.362;2024-03-08T13:00:53;33.97;;;22.03;;
11588;SDS011;5850;51.360;12.362;2024-03-08T13:03:30;31.97;;;22.53;;
11588;SDS011;5850;51.360;12.362;2024-03-08T13:05:58;31.37;;;22.37;;
11588;SDS011;5850;51.360;12.362;2024-03-08T13:08:27;33.23;;;22.60;;
11588;SDS011;5850;51.360;12.362;2024-03-08T13:10:55;34.37;;;22.70;;
11588;SDS011;5850;51.360;12.362;2024-03-08T13:13:28;31.40;;;22.13;;
11588;SDS011;5850;51.360;12.362;2024-03-08T13:15:59;31.93;;;22.83;;
11588;SDS011;5850;51.360;12.362;2024-03-08T13:18:27;33.10;;;22.47;;
11588;SDS011;5850;51.360;12.362;2024-03-08T13:20:56;31.63;;;21.53;;
11588;SDS011;5850;51.360;12.362;2024-03-08T13:23:24;33.60;;;22.87;;
11588;SDS011;5850;51.360;12.362;2024-03-08T13:25:52;31.67;;;22.17;;
11588;SDS011;5850;51.360;12.362;2024-03-08T13:28:21;34.60;;;22.67;;
11588;SDS011;5850;51.360;12.362;2024-03-08T13:30:54;36.30;;;23.80;;
11588;SDS011;5850;51.360;12.362;2024-03-08T13:33:28;29.83;;;22.97;;
11588;SDS011;5850;51.360;12.362;2024-03-08T13:35:56;33.73;;;23.30;;
11588;SDS011;5850;51.360;12.362;2024-03-08T13:38:31;31.90;;;21.67;;
11588;SDS011;5850;51.360;12.362;2024-03-08T13:41:00;34.03;;;22.93;;
11588;SDS011;5850;51.360;12.362;2024-03-08T13:43:29;38.93;;;23.07;;
11588;SDS011;5850;51.360;12.362;2024-03-08T13:46:01;33.00;;;22.03;;
11588;SDS011;5850;51.360;12.362;2024-03-08T13:48:30;31.27;;;22.30;;
11588;SDS011;5850;51.360;12.362;2024-03-08T13:50:59;31.73;;;22.63;;
11588;SDS011;5850;51.360;12.362;2024-03-08T13:53:27;29.53;;;21.57;;
11588;SDS011;5850;51.360;12.362;2024-03-08T13:55:55;30.27;;;21.47;;
11588;SDS011;5850;51.360;12.362;2024-03-08T13:58:24;29.30;;;21.33;;
11588;SDS011;5850;51.360;12.362;2024-03-08T14:00:52;32.53;;;21.17;;
11588;SDS011;5850;51.360;12.362;2024-03-08T14:03:21;32.93;;;22.43;;
11588;SDS011;5850;51.360;12.362;2024-03-08T14:05:50;29.77;;;21.60;;
11588;SDS011;5850;51.360;12.362;2024-03-08T14:08:22;29.03;;;21.07;;
11588;SDS011;5850;51.360;12.362;2024-03-08T14:10:52;32.07;;;22.63;;
11588;SDS011;5850;51.360;12.362;2024-03-08T14:13:21;31.43;;;23.33;;
11588;SDS011;5850;51.360;12.362;2024-03-08T14:15:52;30.83;;;21.93;;
11588;SDS011;5850;51.360;12.362;2024-03-08T14:18:22;30.97;;;22.13;;
11588;SDS011;5850;51.360;12.362;2024-03-08T14:20:50;32.23;;;23.70;;
11588;SDS011;5850;51.360;12.362;2024-03-08T14:23:21;30.17;;;22.40;;
11588;SDS011;5850;51.360;12.362;2024-03-08T14:25:49;31.47;;;22.20;;
11588;SDS011;5850;51.360;12.362;2024-03-08T14:28:18;31.33;;;22.33;;
11588;SDS011;5850;51.360;12.362;2024-03-08T14:30:47;29.93;;;21.70;;
11588;SDS011;5850;51.360;12.362;2024-03-08T14:34:09;33.43;;;22.53;;
11588;SDS011;5850;51.360;12.362;2024-03-08T14:36:40;32.30;;;22.03;;
11588;SDS011;5850;51.360;12.362;2024-03-08T14:39:09;30.30;;;21.73;;
11588;SDS011;5850;51.360;12.362;2024-03-08T14:41:37;31.40;;;21.60;;
11588;SDS011;5850;51.360;12.362;2024-03-08T14:44:07;29.83;;;21.67;;
11588;SDS011;5850;51.360;12.362;2024-03-08T14:46:35;31.87;;;22.47;;